Station: Streaky Bay

  Atmospheric Gas Attenuation - ITU Rec 676-11   --------------- db/100km ---------------
Date Time Temp RH % AH g/m3 Dew Point Wind Direction Speed kph Gust kph Barometer mB Rainfall Since 9am 24GHz 47GHz 76GHz 122GHz 134GHz 241GHz
02 09:00 17 70 10.13 11.5 11 1017.4 0 22.7 27.6 44.5 116.9 114.7 395.9
01 09:00 18 78 11.98 14.2 15 1014.1 0 26.6 30.2 51.4 135.5 138.1 477.7
30 09:00 26 42 10.23 12.3 17 1010.2 0 22.4 24.9 39.8 104.7 102.9 355.7
29 09:00 21.6 53 10.05 11.8 6 1015.4 0 22.3 26.0 41.6 109.3 107.0 369.4
28 09:00 18 73 11.21 13.2 9 1021.1 0 24.9 29.2 48.5 127.7 128.1 442.9
27 09:00 17.4 60 8.89 9.6 9 1022.5 0 20.0 25.7 39.6 103.7 98.4 338.8
26 09:00 16 80 10.9 12.5 17 1021.1 0.4 24.4 29.3 48.4 127.4 127.2 439.2
25 09:00 16.1 87 11.92 14 19 1016 0 26.6 30.9 52.5 138.4 140.9 487.3
24 09:00 18.1 88 13.6 16.1 4 1011.2 0.1 30.0 32.9 58.3 153.8 160.7 556.9
23 09:00 22 67 13 15.7 7 1008.1 0.4 28.5 30.3 52.7 139.1 144.1 499.4
22 09:00 17 71 10.27 11.7 13 1017.6 0 23.0 27.8 45.1 118.5 116.6 402.5
21 09:00 16.1 59 8.09 8.2 11 1022.1 0 18.4 24.8 37.1 97.1 89.7 308.4
20 09:00 14.1 96 11.65 13.4 11 1014.9 15 26.1 31.1 52.6 138.7 140.6 485.9
19 09:00 16 98 13.35 15.7 4 1012.3 4 29.7 33.3 58.8 155.2 161.7 559.8
18 09:00 22.7 59 11.92 14.4 19 1016.3 0 26.1 28.6 48.3 127.2 129.3 447.7
17 09:00 21.8 42 8.06 8.5 24 1022.2 0 18.1 23.2 34.5 90.2 83.2 286.1
16 09:00 15.6 71 9.44 10.5 9 1021.1 0.1 21.3 27.0 42.6 111.9 107.8 371.6
15 09:00 14.2 59 7.2 6.3 13 1021 0.2 16.6 23.9 34.5 90.1 80.5 275.8
14 09:00 15.4 59 7.75 7.5 13 1018.9 2 17.7 24.3 36.0 94.1 86.0 295.2
13 09:00 15.9 70 9.48 10.4 15 1017.1 0.8 21.4 26.8 42.4 111.4 107.6 370.9
12 09:00 13 78 8.85 9.3 13 1013.1 15 20.2 26.5 41.2 108.2 102.8 353.7
11 09:00 10.5 100 9.7 10.5 17 1006 17 22.1 28.5 45.9 120.7 117.5 405.0
10 09:00 14.2 71 8.67 9.1 15 1011.7 5 19.7 25.8 39.8 104.5 98.7 339.6
09 09:00 16 61 8.31 8.6 11 1012.8 0 18.9 24.8 37.6 98.5 91.9 316.1
08 09:00 15.6 54 7.18 6.3 13 1015.2 0 16.5 23.3 33.6 87.8 78.5 268.8
07 09:00 16.2 69 9.51 10.6 11 1013.3 0.2 21.4 26.7 42.2 110.9 107.2 369.7
06 09:00 20.2 86 15.04 17.8 11 1008.3 0.6 33.0 34.6 62.9 166.3 176.9 613.5
05 09:00 21.1 41 7.55 7.6 9 1013.9 0 17.0 22.4 32.6 85.4 77.4 265.8
04 09:00 16 84 11.44 13.3 9 1025.3 0.3 25.5 30.4 51.0 134.1 135.2 467.3
03 09:00 17.2 78 11.42 13.3 20 1018.5 3 25.4 29.7 49.8 131.0 132.1 456.7
02 09:00 24.1 42 9.19 10.4 17 1009.2 0 20.3 23.8 36.9 97.0 92.9 320.6
01 09:00 23 36 7.4 7.2 13 1018.6 0 16.6 21.9 31.5 82.5 74.2 254.8
31 09:00 16.4 51 7.12 6.3 7 1023 0 16.3 23.2 33.3 87.1 77.5 265.4
30 09:00 15 63 8.08 8 6 1026.3 0 18.4 25.2 37.7 98.7 91.2 313.3
29 09:00 15.4 58 7.62 7.3 11 1017.5 1 17.4 24.1 35.4 92.7 84.3 289.1
28 09:00 18 72 11.06 12.9 20 1001 0 24.6 28.2 46.9 123.6 124.1 428.9
27 09:00 20 70 12.1 14.5 7 1007.3 0 26.7 29.5 50.3 132.5 135.4 468.8
26 09:00 22.5 30 5.99 4.4 28 1010.4 0 13.7 19.8 26.8 69.8 58.7 200.4
25 09:00 16.5 61 8.57 9.1 9 1020.7 0 19.4 25.3 38.7 101.4 95.3 327.8
24 09:00 14.1 70 8.5 8.7 6 1026.5 0 19.3 26.1 39.8 104.4 97.8 336.2
23 09:00 16.4 46 6.42 4.7 15 1024.1 0 14.8 22.3 30.8 80.4 69.1 236.1
22 09:00 18 70 10.75 12.4 15 1015.6 0 23.9 28.2 46.3 121.9 121.3 419.2
21 09:00 18.5 70 11.07 13 11 1013.8 0.8 24.6 28.5 47.3 124.4 124.7 431.0
20 09:00 26.2 30 7.39 7.2 30 1004.6 0 16.5 20.7 29.8 78.1 70.4 241.8
19 09:00 21 50 9.16 10.3 11 1017.2 0 20.4 24.9 38.6 101.3 96.9 334.0
18 09:00 17 72 10.42 11.9 6 1014.1 0.1 23.3 27.9 45.5 119.7 118.3 408.5
17 09:00 16.6 63 8.9 9.7 13 1010.8 0 20.1 25.5 39.5 103.7 98.6 339.5
16 09:00 15.1 62 8 7.9 2 1018.8 0 18.2 24.8 37.0 97.0 89.5 307.4
15 09:00 13.5 97 11.35 13 13 1017.2 6 25.5 30.8 51.8 136.5 137.5 475.2
14 09:00 11.5 91 9.4 10.1 30 1003.1 10 21.4 27.5 43.9 115.4 111.5 384.2
13 09:00 13.4 63 7.32 6.6 15 1008.6 1 16.9 23.8 34.8 91.1 82.0 281.0
12 09:00 16 48 6.54 5.1 19 1008.7 0 15.1 22.0 30.8 80.6 70.0 239.2
11 09:00 11.8 69 7.26 6.3 7 1020.9 0 16.8 24.6 35.7 93.5 83.8 286.9
10 09:00 14.4 43 5.32 2.1 15 1020.1 0 12.6 21.0 27.5 71.5 57.6 195.4
09 09:00 16.1 76 10.42 11.9 20 1013.8 0 23.4 28.2 46.0 121.0 119.7 413.1
08 09:00 14 71 8.56 8.9 11 1015.2 0 19.5 25.8 39.6 104.0 97.8 336.3
07 09:00 13.2 55 6.32 4.5 4 1019.8 0 14.8 22.7 31.5 82.3 70.5 240.5
06 09:00 17.7 48 7.24 6.7 2 1009.1 0 16.5 22.6 32.7 85.6 76.7 263.1
05 09:00 12.5 80 8.8 9.1 9 1016.9 0 20.1 26.7 41.4 108.8 103.1 354.6
04 09:00 14.9 53 6.75 5.4 22 1012.5 0 15.6 22.7 32.2 84.1 73.7 252.1
03 09:00 15.5 69 9.12 9.8 22 1006.1 20.6 26.0 40.7 107.0 102.4 352.9
02 09:00 18.7 53 8.48 9 28 1005.3 0 19.1 24.1 36.7 96.2 90.3 311.0
01 09:00 15.1 72 9.29 10.1 2 1016 0.2 21.0 26.7 42.0 110.4 106.1 365.5
30 09:00 15.9 91 12.32 14.5 9 1013.7 1 27.4 31.6 54.3 143.2 146.8 507.9
29 09:00 15.8 75 10.1 11.5 13 1012 0 22.7 27.7 44.8 117.8 115.6 398.9
28 09:00 19 79 12.87 15.3 9 1008.2 1 28.4 31.2 54.2 143.1 148.0 512.7
27 09:00 18.5 37 5.85 3.6 15 1011 0 13.6 20.5 27.6 72.0 60.2 205.0
26 09:00 15 57 7.31 6.5 11 1021.9 0 16.8 23.9 34.6 90.4 81.1 278.0
25 09:00 14.7 69 8.69 9.2 7 1024.4 0 19.7 26.2 40.2 105.4 99.4 341.8
24 09:00 16.5 72 10.11 11.5 19 1019.5 0 22.7 27.8 44.8 117.7 115.4 398.2
23 09:00 15.2 84 10.9 12.6 11 1023.8 0.2 24.4 29.7 49.1 129.1 128.8 444.7
22 09:00 11.8 84 8.84 9.2 6 1033 0 20.2 27.7 42.7 112.0 106.0 364.4
21 09:00 13.9 64 7.67 7.3 6 1036.4 0.1 17.6 25.2 37.1 96.8 87.9 301.5
20 09:00 14.5 50 6.22 4.2 24 1029.1 0 14.5 22.6 31.0 80.8 68.7 234.3
19 09:00 15 70 8.98 9.6 9 1022.9 0.1 20.3 26.5 41.1 107.9 102.7 353.5
18 09:00 15.2 64 8.31 8.4 20 1029.4 1 18.9 25.6 38.7 101.2 94.2 323.7
17 09:00 17.5 74 11.03 12.8 17 1017.3 0 24.6 28.9 47.9 126.0 126.1 435.8
16 09:00 19.5 36 6.04 4 28 1015.6 0 13.9 20.7 28.1 73.2 61.8 210.7
15 09:00 17.4 52 7.71 7.4 11 1023 0 17.5 23.9 35.1 91.8 83.6 287.2
14 09:00 15.1 62 8 7.9 11 1026.1 0 18.2 25.0 37.4 97.8 90.0 309.2
13 09:00 13 63 7.15 6.2 4 1027.4 0.3 16.5 24.3 35.1 91.6 81.6 279.2
12 09:00 13 75 8.51 8.8 20 1017.9 1 19.4 26.2 40.0 105.0 98.6 339.0
11 09:00 16.1 90 12.34 14.5 2 1014.4 0.1 27.5 31.6 54.3 143.1 146.8 507.8
10 09:00 18.1 42 6.49 5 15 1019.1 0 14.9 21.8 30.3 78.9 68.2 233.1
09 09:00 17 42 6.08 4.2 15 1024.5 0 14.1 21.6 29.4 76.6 64.7 220.6
08 09:00 15.2 62 8.05 8 13 1030.9 0 18.3 25.3 37.7 98.6 90.9 312.3
07 09:00 12.9 91 10.26 11.4 6 1035.9 0.2 23.2 29.9 48.3 126.9 124.6 429.9
06 09:00 13.2 74 8.5 8.8 2 1036.2 0.7 19.4 26.8 40.7 106.6 99.7 342.7
05 09:00 11.5 87 8.99 9.5 2 1032.8 1 20.5 28.0 43.5 114.1 108.4 373.1
03 09:00 14.9 68 8.67 9 6 1018.4 0.4 19.7 25.9 39.8 104.3 98.3 338.4
02 09:00 19.9 46 7.9 8.2 22 1004.8 0 17.8 22.9 34.0 89.1 82.0 282.0
01 09:00 13.6 81 9.53 10.5 7 1018.3 0.1 21.6 27.7 43.9 115.4 111.6 384.7
31 09:00 15.1 68 8.77 9.3 9 1014 0 19.9 25.8 39.9 104.6 99.0 340.9
30 09:00 13.2 80 9.19 9.9 19 1014.1 1 20.9 27.1 42.6 111.8 107.2 369.1
29 09:00 13.4 72 8.37 8.4 6 1016.3 5 19.1 25.8 39.2 102.8 96.1 330.4
28 09:00 13 81 9.19 9.9 7 1013 0.6 20.9 27.1 42.6 112.0 107.4 369.8
27 09:00 12 62 6.61 5 19 1014.1 0 15.4 23.3 32.9 85.9 74.8 255.6
26 09:00 9.6 95 8.7 8.8 4 1023.7 0.2 20.0 27.7 42.9 112.5 106.2 365.2
25 09:00 10.4 89 8.58 8.6 2 1029.6 0 19.7 27.5 42.2 110.6 103.9 357.3
24 09:00 12 70 7.46 6.7 4 1030.3 0 17.2 25.2 36.9 96.3 86.9 297.6

Last Refresh: 03-Dec-2021 07:51:40

Bureau of Meteorology